Time;durP1;ratioP1;P1;durP2;ratioP2;P2;SDS_P1;SDS_P2;PMS_P1;PMS_P2;Temp;Humidity;BMP_temperature;BMP_pressure;BME280_temperature;BME280_humidity;BME280_pressure;Samples;Min_cycle;Max_cycle;Signal;HPM_P1;HPM_P2
2023/01/31 00:01:30;;;;;;;16.00;4.15;;;;;;;7.47;63.38;101046.97;5049340;28;20052;-61
2023/01/31 00:04:01;;;;;;;20.58;4.60;;;;;;;7.40;63.69;101044.50;5072458;28;20059;-62
2023/01/31 00:06:31;;;;;;;19.73;4.85;;;;;;;7.44;62.64;101047.56;5072397;28;20067;-63
2023/01/31 00:09:00;;;;;;;;;;;;;;;7.44;62.90;101061.41;5057981;28;20049;-62
2023/01/31 00:11:30;;;;;;;13.68;4.45;;;;;;;7.47;62.85;101058.06;5051867;28;19921;-62
2023/01/31 00:13:58;;;;;;;15.40;4.50;;;;;;;7.46;63.03;101050.88;5052530;28;20064;-63
2023/01/31 00:16:26;;;;;;;17.13;4.60;;;;;;;7.39;63.73;101050.31;5056628;28;20048;-62
2023/01/31 00:18:54;;;;;;;17.13;5.40;;;;;;;7.50;62.96;101057.53;5072209;28;20055;-62
2023/01/31 00:21:25;;;;;;;14.27;4.10;;;;;;;7.48;62.62;101062.53;5072041;28;20057;-62
2023/01/31 00:23:54;;;;;;;16.50;5.25;;;;;;;7.39;64.04;101055.88;5069545;28;20056;-62
2023/01/31 00:26:23;;;;;;;15.90;5.13;;;;;;;7.34;63.26;101042.84;5052289;28;20152;-62
2023/01/31 00:28:52;;;;;;;15.18;4.15;;;;;;;7.35;62.83;101038.13;5052056;28;20067;-62
2023/01/31 00:31:21;;;;;;;15.50;4.88;;;;;;;7.32;63.41;101045.06;5050811;28;20048;-63
2023/01/31 00:33:49;;;;;;;21.30;5.13;;;;;;;7.31;64.23;101048.97;5052236;28;20061;-62
2023/01/31 00:36:28;;;;;;;18.88;4.95;;;;;;;7.22;64.40;101048.66;5051756;28;20052;-62
2023/01/31 00:38:58;;;;;;;18.25;4.30;;;;;;;7.18;63.52;101055.91;5051259;28;20049;-62
2023/01/31 00:41:27;;;;;;;17.10;5.32;;;;;;;7.14;63.68;101049.25;5051756;28;20545;-62
2023/01/31 00:43:58;;;;;;;14.45;4.10;;;;;;;7.20;63.55;101050.91;5051535;28;21181;-62
2023/01/31 00:46:26;;;;;;;17.02;4.97;;;;;;;7.23;64.34;101061.41;5060189;28;20045;-62
2023/01/31 00:48:55;;;;;;;18.35;4.88;;;;;;;7.16;64.18;101062.81;5071943;28;20052;-62
2023/01/31 00:51:23;;;;;;;13.50;4.70;;;;;;;7.21;63.83;101063.63;5066130;28;20049;-63
2023/01/31 00:53:52;;;;;;;17.25;4.50;;;;;;;7.19;64.40;101062.25;5050229;28;20064;-63
2023/01/31 00:56:21;;;;;;;18.88;4.75;;;;;;;7.12;64.76;101045.91;5051595;28;20049;-62
2023/01/31 00:58:49;;;;;;;17.25;4.43;;;;;;;7.06;64.62;101036.78;5048947;28;20124;-62
2023/01/31 01:01:23;;;;;;;15.27;4.50;;;;;;;7.05;64.52;101042.56;5051429;28;20406;-62
2023/01/31 01:03:50;;;;;;;14.45;5.00;;;;;;;7.04;64.30;101043.69;5051716;28;20057;-62
2023/01/31 01:06:18;;;;;;;20.23;5.07;;;;;;;7.05;63.86;101046.19;5051392;28;20060;-62
2023/01/31 01:08:46;;;;;;;19.48;5.70;;;;;;;6.97;64.28;101034.81;5050193;28;20045;-62
2023/01/31 01:11:17;;;;;;;16.75;4.25;;;;;;;7.02;64.98;101040.38;5051333;28;20462;-62
2023/01/31 01:13:46;;;;;;;12.38;3.97;;;;;;;7.03;64.36;101039.25;5049952;28;20056;-62
2023/01/31 01:16:16;;;;;;;20.00;4.68;;;;;;;7.06;64.82;101035.94;5042756;28;20485;-62
2023/01/31 01:18:48;;;;;;;18.27;4.30;;;;;;;7.09;64.31;101040.91;5049707;28;20053;-62
2023/01/31 01:21:19;;;;;;;13.48;4.60;;;;;;;7.09;63.94;101046.47;5051234;28;20049;-62
2023/01/31 01:23:47;;;;;;;17.90;4.47;;;;;;;7.14;63.26;101048.38;5051800;28;20417;-62
2023/01/31 01:26:19;;;;;;;15.35;4.43;;;;;;;7.12;63.55;101048.69;5055573;28;20052;-62
2023/01/31 01:28:46;;;;;;;19.17;4.57;;;;;;;7.09;63.49;101036.19;5064173;28;20045;-63
2023/01/31 01:31:15;;;;;;;20.90;4.40;;;;;;;7.12;63.77;101045.91;5050279;28;20045;-63
2023/01/31 01:33:45;;;;;;;14.23;4.47;;;;;;;7.05;63.65;101048.94;5051317;28;20524;-63
2023/01/31 01:36:16;;;;;;;13.93;3.83;;;;;;;7.10;64.01;101037.06;5051535;28;20057;-62
2023/01/31 01:38:44;;;;;;;16.70;4.68;;;;;;;7.18;63.95;101044.81;5051723;28;20056;-63
2023/01/31 01:41:17;;;;;;;16.02;3.80;;;;;;;7.10;64.30;101039.81;5064902;28;20052;-62
2023/01/31 01:43:46;;;;;;;18.23;4.03;;;;;;;7.09;64.12;101035.38;5066424;28;20045;-62
2023/01/31 01:46:17;;;;;;;16.47;4.23;;;;;;;7.10;63.28;101034.28;5064650;28;20516;-63
2023/01/31 01:48:49;;;;;;;17.85;4.47;;;;;;;6.95;64.38;101039.81;5055079;28;20464;-63
2023/01/31 01:51:18;;;;;;;19.85;4.50;;;;;;;6.95;63.41;101039.81;5054930;28;20417;-62
2023/01/31 01:53:49;;;;;;;16.63;4.30;;;;;;;6.98;64.60;101042.03;5055432;28;20060;-62
2023/01/31 01:56:21;;;;;;;18.05;4.38;;;;;;;7.01;64.43;101044.25;5065895;28;20076;-62
2023/01/31 01:58:56;;;;;;;14.82;3.83;;;;;;;7.02;64.41;101045.91;5053970;28;20060;-63
2023/01/31 02:01:26;;;;;;;12.63;4.28;;;;;;;7.07;63.44;101056.97;5062989;28;20045;-63
2023/01/31 02:03:57;;;;;;;11.63;3.70;;;;;;;6.95;64.30;101046.19;5054356;28;20049;-62
2023/01/31 02:06:27;;;;;;;16.33;4.25;;;;;;;6.80;64.00;101040.63;5054164;28;20060;-63
2023/01/31 02:08:55;;;;;;;17.38;4.80;;;;;;;6.69;64.38;101040.59;5060267;28;20465;-62
2023/01/31 02:11:26;;;;;;;18.60;4.63;;;;;;;6.61;64.53;101040.31;5074203;28;20052;-63
2023/01/31 02:13:59;;;;;;;17.10;4.15;;;;;;;6.52;64.38;101044.75;5056032;28;20060;-62
2023/01/31 02:16:27;;;;;;;15.00;4.30;;;;;;;6.49;64.67;101040.59;5063162;28;20068;-62
2023/01/31 02:18:56;;;;;;;17.23;4.60;;;;;;;6.57;65.21;101039.19;5054731;28;20053;-63
2023/01/31 02:22:05;;;;;;;21.05;4.43;;;;;;;6.48;64.92;101039.72;5054311;28;20049;-62
2023/01/31 02:25:05;;;;;;;15.98;4.53;;;;;;;6.45;65.20;101045.81;5020823;28;20061;-62
2023/01/31 02:28:01;;;;;;;14.50;3.95;;;;;;;6.45;64.62;101058.84;5034452;28;20061;-62
2023/01/31 02:31:01;;;;;;;17.55;4.15;;;;;;;6.55;64.72;101066.31;5062208;28;20055;-62
2023/01/31 02:33:36;;;;;;;15.68;3.45;;;;;;;6.52;64.63;101055.81;5048891;28;20390;-62
2023/01/31 02:36:11;;;;;;;13.75;3.95;;;;;;;6.62;64.94;101070.50;5054413;28;20540;-63
2023/01/31 02:38:51;;;;;;;15.07;3.60;;;;;;;6.74;64.67;101073.03;5052962;28;20053;-62
2023/01/31 02:41:27;;;;;;;12.18;3.40;;;;;;;6.77;64.31;101066.09;5073544;28;20056;-63
2023/01/31 02:46:54;;;;;;;16.13;4.10;;;;;;;6.81;63.92;101072.75;5066066;28;20059;-63
2023/01/31 02:49:35;;;;;;;14.93;3.92;;;;;;;6.84;63.46;101067.47;5052807;28;20064;-62
2023/01/31 02:52:16;;;;;;;13.38;3.47;;;;;;;6.68;63.88;101072.19;5053729;28;20521;-62
2023/01/31 02:57:38;;;;;;;15.38;4.50;;;;;;;6.74;63.92;101069.41;5079109;28;20059;-62
2023/01/31 03:00:08;;;;;;;16.58;3.70;;;;;;;6.65;64.11;101058.88;5067867;28;20048;-63
2023/01/31 03:02:35;;;;;;;17.10;4.88;;;;;;;6.73;64.02;101060.28;5053835;28;20064;-62
2023/01/31 03:05:05;;;;;;;16.40;3.88;;;;;;;6.63;63.56;101058.31;5053794;28;20053;-62
2023/01/31 03:07:35;;;;;;;14.55;4.07;;;;;;;6.53;64.22;101063.00;5053531;28;20053;-62
2023/01/31 03:10:15;;;;;;;15.20;3.75;;;;;;;6.47;63.62;101045.56;5053250;28;20064;-63
2023/01/31 03:12:55;;;;;;;13.50;3.80;;;;;;;6.48;64.33;101047.22;5052469;28;20493;-62
2023/01/31 03:18:21;;;;;;;12.40;3.28;;;;;;;6.37;64.47;101051.88;5053140;28;20056;-60
2023/01/31 03:20:55;;;;;;;15.88;4.10;;;;;;;6.36;64.17;101050.22;5053553;28;20045;-63
2023/01/31 03:23:28;;;;;;;10.23;2.92;;;;;;;6.32;64.65;101046.34;5053380;28;20061;-62
2023/01/31 03:25:57;;;;;;;12.02;3.30;;;;;;;6.44;64.08;101041.38;5047856;28;20057;-62
2023/01/31 03:28:30;;;;;;;14.77;3.88;;;;;;;6.34;64.29;101035.84;5045328;28;20045;-62
2023/01/31 03:31:04;;;;;;;12.95;3.63;;;;;;;6.36;64.30;101033.63;5062848;28;20413;-63
2023/01/31 03:33:34;;;;;;;11.35;3.45;;;;;;;6.41;64.19;101022.56;5052351;28;20053;-61
2023/01/31 03:36:12;;;;;;;16.20;3.67;;;;;;;6.42;64.17;101029.75;5053488;28;20064;-63
2023/01/31 03:38:56;;;;;;;13.00;3.30;;;;;;;6.35;64.48;101029.19;5052853;28;20056;-61
2023/01/31 03:41:30;;;;;;;12.88;3.17;;;;;;;6.43;64.20;101023.13;5056665;28;20053;-62
2023/01/31 03:44:05;;;;;;;11.68;3.80;;;;;;;6.38;64.14;101014.81;5054236;28;20075;-62
2023/01/31 03:46:36;;;;;;;14.05;3.33;;;;;;;6.31;65.04;101011.47;5060342;28;20061;-62
2023/01/31 03:49:08;;;;;;;11.48;3.40;;;;;;;6.33;64.48;100997.38;5053067;28;20049;-63
2023/01/31 03:51:41;;;;;;;13.48;3.63;;;;;;;6.40;64.56;101006.25;5052284;28;20052;-62
2023/01/31 03:54:13;;;;;;;16.60;3.80;;;;;;;6.43;64.59;101012.06;5052830;28;20393;-63
2023/01/31 03:56:44;;;;;;;10.15;3.60;;;;;;;6.41;64.60;100999.63;5057908;28;20049;-62
2023/01/31 03:59:16;;;;;;;11.93;3.72;;;;;;;6.39;64.29;100999.88;5058199;28;20481;-62
2023/01/31 04:01:47;;;;;;;21.10;3.78;;;;;;;6.26;65.45;100995.69;5059513;28;20056;-59
2023/01/31 04:04:19;;;;;;;16.80;3.72;;;;;;;6.29;65.11;101008.16;5052271;28;20064;-60
2023/01/31 04:06:48;;;;;;;15.00;4.28;;;;;;;6.34;64.78;101005.41;5052282;28;20060;-59
2023/01/31 04:09:16;;;;;;;15.82;4.10;;;;;;;6.38;64.75;101003.72;5052575;28;20060;-60
2023/01/31 04:11:48;;;;;;;17.58;4.40;;;;;;;6.46;65.02;100997.66;5049293;28;20431;-60
2023/01/31 04:14:16;;;;;;;15.40;4.15;;;;;;;6.39;65.02;100990.75;5064321;28;20427;-60
2023/01/31 04:16:43;;;;;;;17.23;4.57;;;;;;;6.41;65.03;100994.06;5062241;28;20059;-60
2023/01/31 04:19:11;;;;;;;16.88;4.50;;;;;;;6.40;65.06;100981.34;5052132;28;20378;-60
2023/01/31 04:21:38;;;;;;;19.35;4.82;;;;;;;6.37;64.75;100979.94;5052283;28;20478;-59
2023/01/31 04:24:08;;;;;;;9.95;3.13;;;;;;;6.37;64.86;100979.94;5051358;28;20481;-60
2023/01/31 04:26:35;;;;;;;11.30;3.42;;;;;;;6.38;64.83;100976.06;5032373;28;20061;-60
2023/01/31 04:29:03;;;;;;;14.98;4.05;;;;;;;6.29;65.44;100986.03;5032224;28;20397;-59
2023/01/31 04:31:31;;;;;;;17.15;4.28;;;;;;;6.27;64.86;100991.81;5049848;28;20402;-59
2023/01/31 04:33:58;;;;;;;12.80;4.32;;;;;;;6.38;64.86;100987.13;5054215;28;20397;-60
2023/01/31 04:36:26;;;;;;;11.07;3.42;;;;;;;6.23;65.27;100985.16;5052166;28;20509;-59
2023/01/31 04:38:53;;;;;;;13.00;3.40;;;;;;;6.29;64.64;100989.59;5052358;28;20053;-60
2023/01/31 04:41:21;;;;;;;15.70;4.03;;;;;;;6.37;64.91;100988.25;5051368;28;20056;-60
2023/01/31 04:43:49;;;;;;;15.95;4.50;;;;;;;6.30;65.18;100987.69;5051702;28;20057;-60
2023/01/31 04:46:16;;;;;;;17.35;3.88;;;;;;;6.26;65.34;100983.81;5050854;28;20052;-61
2023/01/31 04:48:46;;;;;;;12.60;3.92;;;;;;;6.19;65.34;100967.44;5052385;28;20060;-60
2023/01/31 04:51:13;;;;;;;;;;;;;;;6.22;65.12;100977.16;5052639;28;20045;-60
2023/01/31 04:53:44;;;;;;;14.75;3.15;;;;;;;6.28;65.04;100973.31;5051913;28;19924;-60
2023/01/31 04:56:13;;;;;;;18.45;3.80;;;;;;;6.37;65.09;100966.13;5052567;28;20053;-60
2023/01/31 04:58:42;;;;;;;10.30;3.00;;;;;;;6.46;65.52;100972.75;5050846;28;20057;-60
2023/01/31 05:01:09;;;;;;;15.95;3.92;;;;;;;6.49;64.90;100963.09;5056760;28;20045;-59
2023/01/31 05:03:36;;;;;;;14.38;4.78;;;;;;;6.49;64.82;100960.34;5059088;28;20448;-60
2023/01/31 05:06:04;;;;;;;11.05;3.60;;;;;;;6.33;65.41;100951.16;5052128;28;20060;-60
2023/01/31 05:08:31;;;;;;;12.32;4.15;;;;;;;6.32;65.64;100951.44;5054049;28;20048;-60
2023/01/31 05:10:59;;;;;;;13.80;3.95;;;;;;;6.33;65.21;100953.94;5071709;28;20079;-60
2023/01/31 05:13:28;;;;;;;16.13;3.83;;;;;;;6.30;65.07;100949.78;5069992;28;20484;-60
2023/01/31 05:15:57;;;;;;;15.70;3.70;;;;;;;6.29;65.56;100945.34;5053542;28;20060;-60
2023/01/31 05:18:25;;;;;;;13.33;3.97;;;;;;;6.17;65.83;100943.94;5063939;28;20049;-60
2023/01/31 05:20:53;;;;;;;15.40;3.83;;;;;;;6.27;65.55;100949.50;5055812;28;21005;-60
2023/01/31 05:23:20;;;;;;;15.88;5.45;;;;;;;6.21;65.82;100945.88;5063991;28;20056;-60
2023/01/31 05:25:50;;;;;;;17.60;5.22;;;;;;;6.17;66.24;100935.66;5074969;28;20060;-62
2023/01/31 05:28:20;;;;;;;;;;;;;;;6.01;67.14;100934.78;5055580;28;20056;-62
2023/01/31 05:30:47;;;;;;;12.65;4.45;;;;;;;6.04;67.29;100928.69;5056863;28;19924;-63
2023/01/31 05:33:18;;;;;;;18.67;4.85;;;;;;;6.16;67.10;100921.00;5071429;28;20045;-63
2023/01/31 05:35:45;;;;;;;16.15;5.53;;;;;;;6.17;67.20;100921.81;5055234;28;20056;-62
2023/01/31 05:38:12;;;;;;;20.10;5.65;;;;;;;6.30;67.22;100919.34;5055021;28;20060;-63
2023/01/31 05:40:40;;;;;;;13.10;4.60;;;;;;;6.28;67.37;100915.22;5054565;28;20052;-62
2023/01/31 05:43:07;;;;;;;16.23;5.25;;;;;;;6.27;67.24;100908.81;5073371;28;20052;-63
2023/01/31 05:45:34;;;;;;;17.10;4.70;;;;;;;6.31;67.00;100909.13;5072311;28;20075;-63
2023/01/31 05:48:02;;;;;;;19.33;6.57;;;;;;;6.40;66.81;100918.50;5056871;28;20060;-62
2023/01/31 05:50:30;;;;;;;13.77;5.50;;;;;;;6.39;67.25;100916.88;5057077;28;20049;-62
2023/01/31 05:52:59;;;;;;;15.85;6.28;;;;;;;6.52;66.33;100906.38;5053403;28;20045;-63
2023/01/31 05:55:27;;;;;;;21.30;6.50;;;;;;;6.56;66.85;100926.84;5054989;28;20052;-62
2023/01/31 05:57:55;;;;;;;17.60;6.72;;;;;;;6.58;66.58;100910.78;5050589;28;20494;-62
2023/01/31 06:00:23;;;;;;;12.88;5.97;;;;;;;6.65;66.24;100914.09;5065950;28;20048;-62
2023/01/31 06:02:50;;;;;;;19.17;7.07;;;;;;;6.49;66.25;100905.00;5059247;28;20045;-62
2023/01/31 06:05:18;;;;;;;17.83;7.57;;;;;;;6.53;66.24;100922.72;5054833;28;20486;-63
2023/01/31 06:07:47;;;;;;;17.73;7.18;;;;;;;6.57;66.79;100914.66;5054837;28;20060;-62
2023/01/31 06:10:14;;;;;;;17.33;6.95;;;;;;;6.64;66.55;100901.38;5052549;28;20072;-62
2023/01/31 06:12:41;;;;;;;18.25;7.43;;;;;;;6.60;65.96;100901.09;5054648;28;20059;-63
2023/01/31 06:15:09;;;;;;;16.08;6.95;;;;;;;6.62;66.47;100893.34;5054270;28;20053;-62
2023/01/31 06:17:37;;;;;;;19.90;7.57;;;;;;;6.62;66.50;100889.75;5061944;28;20066;-62
2023/01/31 06:20:05;;;;;;;17.27;7.22;;;;;;;6.56;66.07;100885.34;5048876;28;20565;-63
2023/01/31 06:22:32;;;;;;;17.88;6.63;;;;;;;6.61;66.22;100872.31;5067454;28;20048;-62
2023/01/31 06:25:00;;;;;;;21.70;8.02;;;;;;;6.53;65.98;100872.88;5074590;28;20500;-62
2023/01/31 06:27:31;;;;;;;14.18;6.78;;;;;;;6.49;65.59;100872.59;5054059;28;20056;-61
2023/01/31 06:29:58;;;;;;;20.73;7.43;;;;;;;6.56;65.35;100872.31;5038879;28;20060;-62
2023/01/31 06:32:25;;;;;;;15.98;7.10;;;;;;;6.55;65.50;100876.22;5058435;28;20052;-62
2023/01/31 06:34:53;;;;;;;20.05;8.00;;;;;;;6.53;64.77;100872.03;5051369;28;20052;-63
2023/01/31 06:37:20;;;;;;;18.95;8.10;;;;;;;6.55;64.91;100878.13;5052638;28;20497;-63
2023/01/31 06:39:47;;;;;;;20.77;8.40;;;;;;;6.57;65.57;100887.81;5052307;28;20053;-63
2023/01/31 06:42:16;;;;;;;16.05;6.75;;;;;;;6.65;64.89;100894.72;5050523;28;20419;-63
2023/01/31 06:44:43;;;;;;;15.75;7.60;;;;;;;6.55;65.46;100903.03;5053670;28;20413;-63
2023/01/31 06:47:11;;;;;;;16.15;7.28;;;;;;;6.66;64.54;100888.91;5048746;28;20397;-63
2023/01/31 06:49:39;;;;;;;18.52;7.50;;;;;;;6.64;64.39;100901.38;5051271;28;20059;-62
2023/01/31 06:52:06;;;;;;;19.73;6.75;;;;;;;6.69;65.19;100887.53;5047339;28;20052;-62
2023/01/31 06:54:34;;;;;;;20.60;6.55;;;;;;;6.72;64.85;100878.69;5052253;28;20064;-63
2023/01/31 06:57:01;;;;;;;15.40;6.45;;;;;;;6.75;64.78;100885.59;5051928;28;20057;-63
2023/01/31 06:59:31;;;;;;;17.52;6.35;;;;;;;6.70;63.98;100878.13;5050386;28;20052;-63
2023/01/31 07:01:58;;;;;;;20.02;7.15;;;;;;;6.72;64.71;100873.16;5051521;28;20052;-63
2023/01/31 07:04:25;;;;;;;16.13;6.85;;;;;;;6.78;64.72;100885.84;5052059;28;20068;-62
2023/01/31 07:06:52;;;;;;;16.17;6.43;;;;;;;6.85;64.32;100880.03;5048481;28;20068;-62
2023/01/31 07:09:20;;;;;;;17.55;6.35;;;;;;;6.81;64.54;100892.78;5052670;28;20044;-63
2023/01/31 07:11:47;;;;;;;18.88;6.63;;;;;;;6.91;64.30;100899.13;5053395;28;20059;-63
2023/01/31 07:14:14;;;;;;;22.70;6.50;;;;;;;6.98;63.48;100909.09;5052483;28;20049;-62
2023/01/31 07:16:43;;;;;;;18.20;6.57;;;;;;;6.90;64.03;100894.69;5063871;28;20057;-63
2023/01/31 07:19:10;;;;;;;21.55;6.50;;;;;;;6.95;63.53;100898.56;5067737;28;20060;-62
2023/01/31 07:21:37;;;;;;;14.85;5.93;;;;;;;6.97;64.36;100893.56;5053974;28;20049;-62
2023/01/31 07:24:05;;;;;;;17.35;6.68;;;;;;;7.05;63.45;100906.84;5052926;28;20478;-63
2023/01/31 07:26:33;;;;;;;17.58;6.20;;;;;;;7.08;63.60;100903.53;5053811;28;20053;-63
2023/01/31 07:29:01;;;;;;;16.02;5.82;;;;;;;7.06;63.04;100908.53;5047303;28;20053;-63
2023/01/31 07:31:28;;;;;;;17.15;6.82;;;;;;;7.13;63.21;100902.69;5051552;28;20045;-62
2023/01/31 07:33:57;;;;;;;18.23;6.10;;;;;;;7.18;63.02;100917.38;5071002;28;20481;-63
2023/01/31 07:36:25;;;;;;;19.58;6.30;;;;;;;7.09;64.02;100911.56;5072962;28;20389;-62
2023/01/31 07:38:54;;;;;;;19.83;7.57;;;;;;;7.15;63.46;100915.16;5060067;28;20068;-63
2023/01/31 07:41:21;;;;;;;15.88;6.03;;;;;;;7.22;62.74;100904.59;5052735;28;20049;-63
2023/01/31 07:43:49;;;;;;;16.50;5.97;;;;;;;7.26;62.73;100891.00;5056721;28;20045;-62
2023/01/31 07:46:16;;;;;;;14.57;6.50;;;;;;;7.28;62.51;100884.06;5069120;28;20417;-63
2023/01/31 07:48:43;;;;;;;19.75;6.90;;;;;;;7.26;62.49;100880.75;5072175;28;20059;-63
2023/01/31 07:51:12;;;;;;;21.75;7.10;;;;;;;7.26;62.80;100902.91;5068871;28;20118;-63
2023/01/31 07:53:42;;;;;;;20.20;6.65;;;;;;;7.26;62.49;100891.00;5052241;28;20076;-63
2023/01/31 07:56:12;;;;;;;18.88;6.78;;;;;;;7.35;63.30;100899.56;5052677;28;20068;-63
2023/01/31 07:58:41;;;;;;;16.27;6.20;;;;;;;7.43;62.24;100891.53;5043515;28;20044;-63
2023/01/31 08:03:58;;;;;;;17.67;5.78;;;;;;;7.64;62.10;100883.09;5070974;28;20067;-63
2023/01/31 08:06:29;;;;;;;14.20;6.25;;;;;;;7.72;61.63;100891.66;5072171;28;20052;-63
2023/01/31 08:08:57;;;;;;;18.40;6.65;;;;;;;7.68;61.75;100893.34;5071888;28;20067;-63
2023/01/31 08:11:24;;;;;;;17.27;6.22;;;;;;;7.69;61.11;100885.88;5059714;28;20401;-63
2023/01/31 08:13:52;;;;;;;24.00;6.25;;;;;;;7.65;61.67;100866.19;5052032;28;20477;-63
2023/01/31 08:16:20;;;;;;;16.85;6.55;;;;;;;7.55;62.53;100877.31;5064797;28;20044;-60
2023/01/31 08:18:47;;;;;;;16.73;6.35;;;;;;;7.55;62.50;100877.31;5072472;28;20397;-60
2023/01/31 08:21:15;;;;;;;16.88;6.45;;;;;;;7.56;61.52;100861.50;5072442;28;20075;-60
2023/01/31 08:23:43;;;;;;;21.48;6.40;;;;;;;7.65;62.03;100849.56;5072110;28;20052;-59
2023/01/31 08:26:13;;;;;;;21.35;6.32;;;;;;;7.48;62.68;100865.72;5057966;28;20052;-63
2023/01/31 08:28:41;;;;;;;17.85;5.82;;;;;;;7.56;61.42;100854.06;5050796;28;20052;-61
2023/01/31 08:31:13;;;;;;;17.30;6.47;;;;;;;7.58;62.17;100853.75;5067960;28;20052;-60
2023/01/31 08:33:40;;;;;;;16.63;6.25;;;;;;;7.48;61.81;100844.38;5071826;28;20052;-60
2023/01/31 08:36:09;;;;;;;17.77;5.63;;;;;;;7.47;62.58;100839.94;5072520;28;20064;-63
2023/01/31 08:38:36;;;;;;;22.10;6.43;;;;;;;7.50;61.45;100830.25;5071872;28;20052;-63
2023/01/31 08:41:05;;;;;;;15.13;5.72;;;;;;;7.56;62.29;100833.78;5050754;28;20054;-62
2023/01/31 08:43:32;;;;;;;15.80;6.18;;;;;;;7.51;61.64;100831.88;5053375;28;20048;-63
2023/01/31 08:46:00;;;;;;;17.88;5.30;;;;;;;7.53;61.41;100833.25;5071744;28;20052;-60
2023/01/31 08:48:27;;;;;;;24.63;6.70;;;;;;;7.72;62.38;100819.56;5072360;28;20044;-60
2023/01/31 08:50:54;;;;;;;20.30;5.78;;;;;;;7.47;61.91;100814.16;5070090;28;20056;-60
2023/01/31 08:53:21;;;;;;;13.82;5.25;;;;;;;7.60;62.40;100830.19;5051448;28;20045;-60
2023/01/31 08:55:49;;;;;;;14.38;4.97;;;;;;;7.72;61.06;100822.31;5052699;28;20128;-60
2023/01/31 08:58:17;;;;;;;14.85;5.32;;;;;;;7.77;62.14;100823.41;5054337;28;20064;-60
2023/01/31 09:00:45;;;;;;;15.27;6.10;;;;;;;7.79;61.70;100815.63;5055156;28;20047;-59
2023/01/31 09:03:16;;;;;;;18.25;5.18;;;;;;;7.72;61.66;100824.28;5070306;28;20052;-59
2023/01/31 09:05:44;;;;;;;14.60;5.38;;;;;;;7.51;65.01;100824.38;5075583;28;20063;-60
2023/01/31 09:08:11;;;;;;;18.40;4.70;;;;;;;7.49;66.36;100834.94;5072434;28;20071;-60
2023/01/31 09:10:39;;;;;;;14.05;4.65;;;;;;;7.49;66.96;100828.56;5055297;28;20052;-60
2023/01/31 09:13:06;;;;;;;12.98;4.30;;;;;;;7.51;67.84;100851.28;5054862;28;20056;-60
2023/01/31 09:15:35;;;;;;;16.50;5.00;;;;;;;7.49;66.40;100839.66;5060174;28;20079;-63
2023/01/31 09:18:04;;;;;;;12.00;4.22;;;;;;;7.32;67.10;100837.25;5067119;28;20067;-63
2023/01/31 09:20:31;;;;;;;13.43;4.90;;;;;;;7.44;66.76;100840.50;5075173;28;20057;-62
2023/01/31 09:22:58;;;;;;;17.15;5.00;;;;;;;7.45;67.13;100830.25;5075032;28;20060;-63
2023/01/31 09:25:25;;;;;;;16.15;4.57;;;;;;;7.43;67.27;100826.94;5055886;28;20052;-63
2023/01/31 09:27:53;;;;;;;9.60;4.40;;;;;;;7.51;66.40;100834.66;5055169;28;20056;-63
2023/01/31 09:30:21;;;;;;;13.93;4.97;;;;;;;7.48;66.93;100826.94;5063586;28;20061;-63
2023/01/31 09:32:50;;;;;;;14.40;4.30;;;;;;;7.30;67.45;100798.72;5055437;28;20057;-63
2023/01/31 09:35:18;;;;;;;12.13;4.50;;;;;;;7.31;68.42;100805.13;5055170;28;20053;-63
2023/01/31 09:37:45;;;;;;;13.65;4.13;;;;;;;7.39;68.21;100795.34;5055284;28;20057;-63
2023/01/31 09:40:22;;;;;;;13.77;4.40;;;;;;;7.42;68.73;100794.81;5053986;28;20482;-63
2023/01/31 09:42:53;;;;;;;12.88;4.05;;;;;;;7.44;67.23;100798.94;5052633;28;20045;-63
2023/01/31 09:45:29;;;;;;;14.77;3.92;;;;;;;7.51;68.04;100793.06;5035108;28;20474;-63
2023/01/31 09:48:00;;;;;;;13.35;4.38;;;;;;;7.38;67.64;100799.25;5035152;28;20053;-63
2023/01/31 09:50:34;;;;;;;11.43;4.38;;;;;;;7.31;67.66;100794.03;5035517;28;20506;-63
2023/01/31 09:53:02;;;;;;;12.88;4.07;;;;;;;7.07;68.59;100799.38;5052338;28;20076;-63
2023/01/31 09:55:36;;;;;;;15.45;5.68;;;;;;;6.96;68.52;100800.53;5054851;28;20051;-63
2023/01/31 09:58:16;;;;;;;10.68;4.25;;;;;;;6.97;68.72;100799.41;5052632;28;20485;-63
2023/01/31 10:00:47;;;;;;;17.80;4.82;;;;;;;6.97;70.13;100793.88;5057396;28;20049;-63
2023/01/31 10:03:41;;;;;;;10.57;4.20;;;;;;;7.11;69.05;100798.53;5074824;28;20064;-63
2023/01/31 10:06:17;;;;;;;13.63;4.00;;;;;;;7.14;69.80;100805.47;5074184;28;20048;-63
2023/01/31 10:08:51;;;;;;;12.50;3.95;;;;;;;7.20;69.43;100790.47;5065669;28;20144;-63
2023/01/31 10:11:28;;;;;;;9.57;3.55;;;;;;;7.36;69.08;100793.16;5053680;28;20497;-63
2023/01/31 10:14:01;;;;;;;16.45;4.07;;;;;;;7.25;68.32;100779.38;5056143;28;20048;-63
2023/01/31 10:16:33;;;;;;;12.23;3.45;;;;;;;7.48;68.34;100774.25;5074964;28;20059;-63
2023/01/31 10:19:07;;;;;;;10.68;3.80;;;;;;;7.57;67.36;100780.84;5074350;28;20091;-63
2023/01/31 10:21:40;;;;;;;13.13;3.97;;;;;;;7.46;67.91;100779.25;5074629;28;20064;-63
2023/01/31 10:24:16;;;;;;;11.02;3.63;;;;;;;7.41;68.98;100782.03;5064022;28;20053;-64
2023/01/31 10:26:46;;;;;;;11.98;4.03;;;;;;;7.37;68.84;100769.88;5054320;28;20433;-63
2023/01/31 10:29:18;;;;;;;14.10;3.70;;;;;;;7.31;68.90;100760.78;5065431;28;20063;-64
2023/01/31 10:31:51;;;;;;;13.23;3.70;;;;;;;7.34;69.67;100751.06;5070148;28;20057;-63
2023/01/31 10:34:23;;;;;;;13.68;3.60;;;;;;;7.26;69.84;100742.22;5054319;28;20049;-63
2023/01/31 10:36:57;;;;;;;9.15;3.50;;;;;;;7.39;71.14;100753.78;5054347;28;20053;-63
2023/01/31 10:39:30;;;;;;;10.52;3.60;;;;;;;7.51;70.39;100744.00;5053587;28;20084;-64
2023/01/31 10:42:08;;;;;;;8.95;3.70;;;;;;;7.31;70.83;100747.75;5052929;28;20401;-63
2023/01/31 10:44:47;;;;;;;9.73;3.70;;;;;;;7.32;70.26;100734.72;5064412;28;20053;-63
2023/01/31 10:47:16;;;;;;;10.25;3.90;;;;;;;7.45;70.97;100734.06;5074242;28;20400;-63
2023/01/31 10:49:47;;;;;;;11.25;3.58;;;;;;;7.44;70.79;100734.38;5073832;28;20056;-63
2023/01/31 10:52:40;;;;;;;13.63;3.70;;;;;;;7.36;70.98;100732.22;5060122;28;20056;-63
2023/01/31 10:55:34;;;;;;;10.35;3.95;;;;;;;7.28;71.01;100733.63;5053628;28;20051;-63
2023/01/31 10:58:07;;;;;;;10.43;3.40;;;;;;;7.25;70.97;100737.81;5064095;28;20060;-63
2023/01/31 11:00:34;;;;;;;8.80;3.65;;;;;;;7.26;70.53;100730.31;5071535;28;20049;-60
2023/01/31 11:03:02;;;;;;;9.63;3.47;;;;;;;7.25;70.71;100720.38;5053058;28;20135;-60
2023/01/31 11:05:34;;;;;;;8.48;3.90;;;;;;;7.30;71.64;100714.78;5052862;28;20478;-59
2023/01/31 11:08:23;;;;;;;10.50;3.97;;;;;;;7.32;71.65;100693.16;5053409;28;20055;-59
2023/01/31 11:10:52;;;;;;;6.73;3.43;;;;;;;7.35;71.95;100694.50;5053194;28;20057;-63
2023/01/31 11:13:20;;;;;;;10.88;4.05;;;;;;;7.12;72.65;100680.28;5061356;28;20469;-61
2023/01/31 11:15:48;;;;;;;7.88;3.58;;;;;;;7.15;72.71;100668.59;5072346;28;20053;-61
2023/01/31 11:18:23;;;;;;;9.05;3.92;;;;;;;7.24;72.82;100686.25;5068064;28;20063;-62
2023/01/31 11:20:53;;;;;;;7.72;3.38;;;;;;;7.15;72.21;100690.75;5057104;28;20063;-62
2023/01/31 11:23:24;;;;;;;6.55;2.88;;;;;;;7.16;72.73;100697.13;5051886;28;20060;-62
2023/01/31 11:25:53;;;;;;;6.72;3.38;;;;;;;7.27;72.50;100682.13;5053102;28;20059;-62
2023/01/31 11:28:23;;;;;;;6.05;3.35;;;;;;;7.20;72.49;100678.81;5057810;28;20413;-62
2023/01/31 11:30:52;;;;;;;;;;;;;;;7.12;71.70;100685.81;5073547;28;20063;-63
2023/01/31 11:33:39;;;;;;;8.13;3.30;;;;;;;7.08;71.26;100662.56;5053859;28;19921;-62
2023/01/31 11:36:13;;;;;;;4.97;3.10;;;;;;;7.15;72.28;100663.06;5052967;28;20053;-62
2023/01/31 11:38:41;;;;;;;7.72;3.40;;;;;;;7.21;72.18;100658.31;5051716;28;20052;-62
2023/01/31 11:41:30;;;;;;;5.80;3.20;;;;;;;7.28;71.01;100667.13;5051025;28;20045;-62
2023/01/31 11:44:15;;;;;;;8.77;3.67;;;;;;;7.33;71.02;100653.25;5067240;28;20072;-66
2023/01/31 11:46:49;;;;;;;6.07;3.47;;;;;;;7.41;71.74;100654.56;5073035;28;20052;-62
2023/01/31 11:49:32;;;;;;;9.75;4.00;;;;;;;7.43;70.77;100652.34;5055431;28;20509;-62
2023/01/31 11:52:11;;;;;;;9.10;3.88;;;;;;;7.50;70.32;100637.03;5052958;28;20485;-62
2023/01/31 11:54:43;;;;;;;8.13;4.00;;;;;;;7.64;69.73;100630.81;5051854;28;20044;-62